createdAt,value
2018-07-23T00:03:50.447Z,88.72
2018-07-23T00:09:56.003Z,88.78
2018-07-23T00:16:01.569Z,89.37
2018-07-23T00:22:07.236Z,89.51
2018-07-23T00:28:12.831Z,90.82
2018-07-23T00:34:18.413Z,89.75
2018-07-23T00:40:23.689Z,88.25
2018-07-23T00:46:29.151Z,90.14
2018-07-23T00:52:35.147Z,88.90
2018-07-23T00:58:40.748Z,89.86
2018-07-23T01:04:46.310Z,90.34
2018-07-23T01:10:51.885Z,88.52
2018-07-23T01:16:57.458Z,89.06
2018-07-23T01:23:03.013Z,89.07
2018-07-23T01:29:08.583Z,89.70
2018-07-23T01:35:14.124Z,90.31
2018-07-23T01:41:19.725Z,91.29
2018-07-23T01:47:25.301Z,91.90
2018-07-23T01:53:30.893Z,91.43
2018-07-23T01:59:36.515Z,91.74
2018-07-23T02:05:42.131Z,91.05
2018-07-23T02:11:47.734Z,91.00
2018-07-23T02:17:53.301Z,91.90
2018-07-23T02:23:58.895Z,92.05
2018-07-23T02:30:04.883Z,91.30
2018-07-23T02:36:10.455Z,91.82
2018-07-23T02:42:16.205Z,92.13
2018-07-23T02:48:21.819Z,92.07
2018-07-23T02:54:27.428Z,91.70
2018-07-23T03:00:33.032Z,92.54
2018-07-23T03:06:38.607Z,92.21
2018-07-23T03:12:44.160Z,92.31
2018-07-23T03:18:50.173Z,92.08
2018-07-23T03:24:55.853Z,92.24
2018-07-23T03:31:01.480Z,92.99
2018-07-23T03:37:07.041Z,92.90
2018-07-23T03:43:12.689Z,93.37
2018-07-23T03:49:18.267Z,92.61
2018-07-23T03:55:23.823Z,93.31
2018-07-23T04:01:29.411Z,92.25
2018-07-23T04:07:34.989Z,92.06
2018-07-23T04:13:40.266Z,92.09
2018-07-23T04:19:45.712Z,92.48
2018-07-23T04:25:51.307Z,91.83
2018-07-23T04:32:04.995Z,91.67
2018-07-23T04:38:11.184Z,91.78
2018-07-23T04:44:16.771Z,92.34
2018-07-23T04:50:22.367Z,92.11
2018-07-23T04:56:27.957Z,92.38
2018-07-23T05:02:33.532Z,92.01
2018-07-23T05:08:39.150Z,90.72
2018-07-23T05:14:44.719Z,90.35
2018-07-23T05:20:50.297Z,89.76
2018-07-23T05:26:55.893Z,89.85
2018-07-23T05:33:01.479Z,89.50
2018-07-23T05:39:10.317Z,90.14
2018-07-23T05:45:15.931Z,88.94
2018-07-23T05:51:21.493Z,88.42
2018-07-23T05:57:27.104Z,87.57
2018-07-23T06:03:32.731Z,87.26
2018-07-23T06:09:38.293Z,88.18
2018-07-23T06:15:43.864Z,88.46
2018-07-23T06:21:49.457Z,88.95
2018-07-23T06:27:55.258Z,87.88
2018-07-23T06:34:00.857Z,87.67
2018-07-23T06:40:08.438Z,87.70
2018-07-23T06:46:14.026Z,87.53
2018-07-23T06:52:19.621Z,88.15
2018-07-23T06:58:25.221Z,87.81
2018-07-23T07:04:30.779Z,85.76
2018-07-23T07:10:36.357Z,86.89
2018-07-23T07:16:41.951Z,84.62
2018-07-23T07:22:47.538Z,84.90
2018-07-23T07:28:53.144Z,83.91
2018-07-23T07:34:58.767Z,84.44
2018-07-23T07:41:04.397Z,84.46
2018-07-23T07:47:10.044Z,84.20
2018-07-23T07:53:15.610Z,83.69
2018-07-23T07:59:21.181Z,80.76
2018-07-23T08:05:26.761Z,78.04
2018-07-23T08:11:32.349Z,75.43
2018-07-23T08:17:37.941Z,74.58
2018-07-23T08:23:43.510Z,72.38
2018-07-23T08:29:49.182Z,70.83
2018-07-23T08:35:55.078Z,69.21
2018-07-23T08:42:01.665Z,68.25
2018-07-23T08:48:07.615Z,65.52
2018-07-23T08:54:13.550Z,66.53
2018-07-23T09:00:18.981Z,64.77
2018-07-23T09:06:25.133Z,64.36
2018-07-23T09:12:30.989Z,63.77
2018-07-23T09:18:36.889Z,61.81
2018-07-23T09:24:43.200Z,59.78
2018-07-23T09:30:51.551Z,58.99
2018-07-23T09:36:57.350Z,57.85
2018-07-23T09:43:04.053Z,56.01
2018-07-23T09:49:10.001Z,53.32
2018-07-23T09:55:16.010Z,53.36
2018-07-23T10:01:21.969Z,48.98
2018-07-23T10:07:27.935Z,46.77
2018-07-23T10:13:33.967Z,47.11
2018-07-23T10:19:40.452Z,47.64
2018-07-23T10:25:46.473Z,47.26
2018-07-23T10:31:52.557Z,46.32
2018-07-23T10:37:58.587Z,45.83
2018-07-23T10:44:04.591Z,47.10
2018-07-23T10:50:10.633Z,42.48
2018-07-23T10:56:16.569Z,42.29
2018-07-23T11:02:22.489Z,42.16
2018-07-23T11:08:28.419Z,42.85
2018-07-23T11:14:34.328Z,40.83
2018-07-23T11:20:40.298Z,39.22
2018-07-23T11:26:46.367Z,39.32
2018-07-23T11:32:52.867Z,36.24
2018-07-23T11:38:58.855Z,34.73
2018-07-23T11:45:04.904Z,33.23
2018-07-23T11:51:10.937Z,33.31
2018-07-23T11:57:16.868Z,33.29
2018-07-23T12:03:22.878Z,33.22
2018-07-23T12:09:28.803Z,32.55
2018-07-23T12:15:34.745Z,32.66
2018-07-23T12:21:40.813Z,32.43
2018-07-23T12:27:46.420Z,31.29
2018-07-23T12:33:52.300Z,30.81
2018-07-23T12:39:58.330Z,28.30
2018-07-23T12:46:04.136Z,28.74
2018-07-23T12:52:10.109Z,28.12
2018-07-23T12:58:16.150Z,28.01
2018-07-23T13:04:22.059Z,26.71
2018-07-23T13:10:28.014Z,27.49
2018-07-23T13:16:33.989Z,28.94
2018-07-23T13:22:39.924Z,27.69
2018-07-23T13:28:45.949Z,26.42
2018-07-23T13:34:51.888Z,26.95
2018-07-23T13:40:57.878Z,24.46
2018-07-23T13:47:03.964Z,23.35
2018-07-23T13:53:09.997Z,22.38
2018-07-23T13:59:16.056Z,22.78
2018-07-23T14:05:22.062Z,25.32
2018-07-23T14:11:27.850Z,26.89
2018-07-23T14:17:33.986Z,29.08
2018-07-23T14:23:39.616Z,26.83
2018-07-23T14:29:45.689Z,22.40
2018-07-23T14:35:51.661Z,22.54
2018-07-23T14:41:57.631Z,21.20
2018-07-23T14:48:03.785Z,22.95
2018-07-23T14:54:09.761Z,24.42
2018-07-23T15:00:15.722Z,23.89
2018-07-23T15:06:21.600Z,22.14
2018-07-23T15:12:27.557Z,24.73
2018-07-23T15:18:33.476Z,27.67
2018-07-23T15:24:39.438Z,25.94
2018-07-23T15:30:45.515Z,26.90
2018-07-23T15:36:51.437Z,28.95
2018-07-23T15:42:57.385Z,29.41
2018-07-23T15:49:03.334Z,26.85
2018-07-23T15:55:09.409Z,25.47
2018-07-23T16:01:15.278Z,24.45
2018-07-23T16:07:21.245Z,23.23
2018-07-23T16:13:27.151Z,23.03
2018-07-23T16:19:32.932Z,23.74
2018-07-23T16:25:39.111Z,24.86
2018-07-23T16:31:45.080Z,25.23
2018-07-23T16:37:51.011Z,24.27
2018-07-23T16:43:56.992Z,23.87
2018-07-23T16:50:02.957Z,22.86
2018-07-23T16:56:08.927Z,22.29
2018-07-23T17:02:14.883Z,21.52
2018-07-23T17:08:20.808Z,21.06
2018-07-23T17:14:26.695Z,21.76
2018-07-23T17:20:32.671Z,21.21
2018-07-23T17:26:38.676Z,21.12
2018-07-23T17:32:44.446Z,21.80
2018-07-23T17:38:50.067Z,23.34
2018-07-23T17:44:55.709Z,24.43
2018-07-23T17:51:01.546Z,25.56
2018-07-23T17:57:07.484Z,24.13
2018-07-23T18:03:13.485Z,26.21
2018-07-23T18:09:19.384Z,28.61
2018-07-23T18:15:25.303Z,28.26
2018-07-23T18:21:31.211Z,29.84
2018-07-23T18:27:37.035Z,30.26
2018-07-23T18:33:43.040Z,31.36
2018-07-23T18:39:48.862Z,31.43
2018-07-23T18:45:54.535Z,32.82
2018-07-23T18:52:00.170Z,34.55
2018-07-23T18:58:05.781Z,37.70
2018-07-23T19:04:11.825Z,39.09
2018-07-23T19:10:17.762Z,40.64
2018-07-23T19:16:23.719Z,41.12
2018-07-23T19:22:29.826Z,44.06
2018-07-23T19:28:35.750Z,45.90
2018-07-23T19:34:41.619Z,47.96
2018-07-23T19:40:47.599Z,49.32
2018-07-23T19:46:53.429Z,50.39
2018-07-23T19:52:59.359Z,51.83
2018-07-23T19:59:05.309Z,52.34
2018-07-23T20:05:11.256Z,54.42
2018-07-23T20:11:17.176Z,55.32
2018-07-23T20:17:23.107Z,55.42
2018-07-23T20:23:29.010Z,56.70
2018-07-23T20:29:34.857Z,58.07
2018-07-23T20:35:40.377Z,58.10
2018-07-23T20:41:45.985Z,57.25
2018-07-23T20:47:51.526Z,59.05
2018-07-23T20:53:57.088Z,59.50
2018-07-23T21:00:02.727Z,58.67
2018-07-23T21:06:09.172Z,59.65
2018-07-23T21:12:15.106Z,61.42
2018-07-23T21:18:20.729Z,61.00
2018-07-23T21:24:26.332Z,61.28
2018-07-23T21:30:31.953Z,61.55
2018-07-23T21:36:37.505Z,61.91
2018-07-23T21:42:43.081Z,60.86
2018-07-23T21:48:48.958Z,63.02
2018-07-23T21:54:54.626Z,63.76
2018-07-23T22:01:00.230Z,64.59
2018-07-23T22:07:05.873Z,65.11
2018-07-23T22:13:11.454Z,65.58
2018-07-23T22:19:17.069Z,64.85
2018-07-23T22:25:22.676Z,66.53
2018-07-23T22:31:28.248Z,66.54
2018-07-23T22:37:33.865Z,66.19
2018-07-23T22:43:39.446Z,66.41
2018-07-23T22:49:45.438Z,66.77
2018-07-23T22:55:51.362Z,67.50
2018-07-23T23:01:57.203Z,67.59
2018-07-23T23:08:02.967Z,68.11
2018-07-23T23:14:08.602Z,68.29
2018-07-23T23:20:14.253Z,67.95
2018-07-23T23:26:19.845Z,68.58
2018-07-23T23:32:25.444Z,68.64
2018-07-23T23:38:31.085Z,69.18
2018-07-23T23:44:36.683Z,69.06
2018-07-23T23:50:42.237Z,69.02
2018-07-23T23:56:47.783Z,68.93
